sensor_id;sensor_type;location;lat;lon;timestamp;pressure;altitude;pressure_sealevel;temperature;humidity
8039;BME280;4062;49.844;8.120;2023-07-22T00:01:10;99217.50;;;19.43;58.38
8039;BME280;4062;49.844;8.120;2023-07-22T00:03:11;99213.88;;;19.44;58.32
8039;BME280;4062;49.844;8.120;2023-07-22T00:05:13;99218.38;;;19.44;58.24
8039;BME280;4062;49.844;8.120;2023-07-22T00:07:14;99213.88;;;19.44;58.01
8039;BME280;4062;49.844;8.120;2023-07-22T00:09:15;99215.69;;;19.44;58.41
8039;BME280;4062;49.844;8.120;2023-07-22T00:11:16;99215.69;;;19.44;58.33
8039;BME280;4062;49.844;8.120;2023-07-22T00:13:18;99215.69;;;19.44;58.18
8039;BME280;4062;49.844;8.120;2023-07-22T00:15:19;99219.22;;;19.44;58.45
8039;BME280;4062;49.844;8.120;2023-07-22T00:17:21;99213.88;;;19.44;58.37
8039;BME280;4062;49.844;8.120;2023-07-22T00:19:22;99219.22;;;19.44;58.17
8039;BME280;4062;49.844;8.120;2023-07-22T00:21:24;99213.88;;;19.44;58.39
8039;BME280;4062;49.844;8.120;2023-07-22T00:23:25;99220.09;;;19.45;58.21
8039;BME280;4062;49.844;8.120;2023-07-22T00:25:27;99224.59;;;19.44;58.11
8039;BME280;4062;49.844;8.120;2023-07-22T00:27:28;99224.59;;;19.44;58.20
8039;BME280;4062;49.844;8.120;2023-07-22T00:29:29;99230.81;;;19.45;58.23
8039;BME280;4062;49.844;8.120;2023-07-22T00:31:30;99225.47;;;19.45;58.27
8039;BME280;4062;49.844;8.120;2023-07-22T00:33:32;99224.59;;;19.44;58.32
8039;BME280;4062;49.844;8.120;2023-07-22T00:35:33;99219.22;;;19.44;58.47
8039;BME280;4062;49.844;8.120;2023-07-22T00:37:35;99219.22;;;19.44;58.02
8039;BME280;4062;49.844;8.120;2023-07-22T00:39:36;99217.41;;;19.45;58.44
8039;BME280;4062;49.844;8.120;2023-07-22T00:41:38;99221.91;;;19.44;58.07
8039;BME280;4062;49.844;8.120;2023-07-22T00:43:40;99214.81;;;19.43;58.16
8039;BME280;4062;49.844;8.120;2023-07-22T00:45:41;99216.66;;;19.43;58.20
8039;BME280;4062;49.844;8.120;2023-07-22T00:47:44;99223.72;;;19.44;58.47
8039;BME280;4062;49.844;8.120;2023-07-22T00:49:48;99221.91;;;19.44;58.43
8039;BME280;4062;49.844;8.120;2023-07-22T00:51:50;99214.81;;;19.43;58.37
8039;BME280;4062;49.844;8.120;2023-07-22T00:53:51;99215.69;;;19.44;58.10
8039;BME280;4062;49.844;8.120;2023-07-22T00:55:52;99215.69;;;19.44;58.33
8039;BME280;4062;49.844;8.120;2023-07-22T00:57:55;99220.19;;;19.43;57.94
8039;BME280;4062;49.844;8.120;2023-07-22T00:59:57;99213.03;;;19.44;58.10
8039;BME280;4062;49.844;8.120;2023-07-22T01:01:58;99213.88;;;19.44;58.17
8039;BME280;4062;49.844;8.120;2023-07-22T01:03:59;99211.28;;;19.43;58.44
8039;BME280;4062;49.844;8.120;2023-07-22T01:06:03;99214.81;;;19.43;58.32
8039;BME280;4062;49.844;8.120;2023-07-22T01:08:05;99211.28;;;19.43;58.35
8039;BME280;4062;49.844;8.120;2023-07-22T01:10:07;99215.81;;;19.42;58.33
8039;BME280;4062;49.844;8.120;2023-07-22T01:12:10;99207.66;;;19.44;58.26
8039;BME280;4062;49.844;8.120;2023-07-22T01:14:11;99210.44;;;19.42;58.28
8039;BME280;4062;49.844;8.120;2023-07-22T01:16:12;99209.47;;;19.43;58.39
8039;BME280;4062;49.844;8.120;2023-07-22T01:18:14;99204.09;;;19.43;58.42
8039;BME280;4062;49.844;8.120;2023-07-22T01:20:16;99212.13;;;19.43;58.12
8039;BME280;4062;49.844;8.120;2023-07-22T01:22:20;99206.78;;;19.43;58.17
8039;BME280;4062;49.844;8.120;2023-07-22T01:24:23;99206.78;;;19.43;58.12
8039;BME280;4062;49.844;8.120;2023-07-22T01:26:25;99210.34;;;19.44;58.14
8039;BME280;4062;49.844;8.120;2023-07-22T01:28:26;99208.63;;;19.43;58.33
8039;BME280;4062;49.844;8.120;2023-07-22T01:30:27;99201.41;;;19.43;58.19
8039;BME280;4062;49.844;8.120;2023-07-22T01:32:29;99203.25;;;19.43;58.33
8039;BME280;4062;49.844;8.120;2023-07-22T01:34:30;99203.25;;;19.43;58.16
8039;BME280;4062;49.844;8.120;2023-07-22T01:36:32;99200.56;;;19.43;58.38
8039;BME280;4062;49.844;8.120;2023-07-22T01:38:34;99203.25;;;19.43;58.37
8039;BME280;4062;49.844;8.120;2023-07-22T01:40:36;99205.94;;;19.43;58.20
8039;BME280;4062;49.844;8.120;2023-07-22T01:42:41;99203.25;;;19.43;58.17
8039;BME280;4062;49.844;8.120;2023-07-22T01:44:43;99207.78;;;19.42;58.22
8039;BME280;4062;49.844;8.120;2023-07-22T01:46:44;99210.34;;;19.44;58.28
8039;BME280;4062;49.844;8.120;2023-07-22T01:48:46;99197.06;;;19.42;58.13
8039;BME280;4062;49.844;8.120;2023-07-22T01:50:47;99206.78;;;19.43;58.13
8039;BME280;4062;49.844;8.120;2023-07-22T01:52:48;99195.22;;;19.43;58.32
8039;BME280;4062;49.844;8.120;2023-07-22T01:54:49;99202.31;;;19.44;58.22
8039;BME280;4062;49.844;8.120;2023-07-22T01:56:51;99202.41;;;19.42;58.15
8039;BME280;4062;49.844;8.120;2023-07-22T01:58:52;99197.91;;;19.43;58.09
8039;BME280;4062;49.844;8.120;2023-07-22T02:00:53;99203.25;;;19.43;58.10
8039;BME280;4062;49.844;8.120;2023-07-22T02:02:55;99197.06;;;19.42;58.21
8039;BME280;4062;49.844;8.120;2023-07-22T02:04:56;99203.25;;;19.43;58.32
8039;BME280;4062;49.844;8.120;2023-07-22T02:06:58;99199.72;;;19.42;58.37
8039;BME280;4062;49.844;8.120;2023-07-22T02:08:59;99209.47;;;19.43;58.25
8039;BME280;4062;49.844;8.120;2023-07-22T02:11:05;99200.56;;;19.43;58.31
8039;BME280;4062;49.844;8.120;2023-07-22T02:13:07;99205.94;;;19.43;58.35
8039;BME280;4062;49.844;8.120;2023-07-22T02:15:09;99206.78;;;19.43;58.47
8039;BME280;4062;49.844;8.120;2023-07-22T02:17:10;99210.44;;;19.42;58.14
8039;BME280;4062;49.844;8.120;2023-07-22T02:19:12;99207.78;;;19.42;58.35
8039;BME280;4062;49.844;8.120;2023-07-22T02:21:16;99202.41;;;19.42;58.15
8039;BME280;4062;49.844;8.120;2023-07-22T02:23:17;99204.22;;;19.42;58.35
8039;BME280;4062;49.844;8.120;2023-07-22T02:25:19;99204.97;;;19.44;58.21
8039;BME280;4062;49.844;8.120;2023-07-22T02:27:20;99205.09;;;19.42;58.06
8039;BME280;4062;49.844;8.120;2023-07-22T02:29:21;99213.97;;;19.43;58.02
8039;BME280;4062;49.844;8.120;2023-07-22T02:31:23;99214.94;;;19.42;58.28
8039;BME280;4062;49.844;8.120;2023-07-22T02:33:24;99210.44;;;19.42;58.19
8039;BME280;4062;49.844;8.120;2023-07-22T02:35:28;99212.25;;;19.42;58.03
8039;BME280;4062;49.844;8.120;2023-07-22T02:37:30;99209.56;;;19.42;58.22
8039;BME280;4062;49.844;8.120;2023-07-22T02:39:31;99212.25;;;19.42;58.13
8039;BME280;4062;49.844;8.120;2023-07-22T02:41:33;99209.56;;;19.42;58.26
8039;BME280;4062;49.844;8.120;2023-07-22T02:43:35;99212.25;;;19.42;58.32
8039;BME280;4062;49.844;8.120;2023-07-22T02:45:37;99212.25;;;19.42;58.22
8039;BME280;4062;49.844;8.120;2023-07-22T02:47:39;99209.56;;;19.42;58.39
8039;BME280;4062;49.844;8.120;2023-07-22T02:49:41;99218.47;;;19.42;58.08
8039;BME280;4062;49.844;8.120;2023-07-22T02:51:42;99211.41;;;19.41;58.33
8039;BME280;4062;49.844;8.120;2023-07-22T02:53:46;99212.25;;;19.42;58.10
8039;BME280;4062;49.844;8.120;2023-07-22T02:55:48;99215.81;;;19.42;58.12
8039;BME280;4062;49.844;8.120;2023-07-22T02:57:50;99209.56;;;19.42;58.20
8039;BME280;4062;49.844;8.120;2023-07-22T02:59:51;99216.66;;;19.43;58.31
8039;BME280;4062;49.844;8.120;2023-07-22T03:01:53;99209.56;;;19.42;58.20
8039;BME280;4062;49.844;8.120;2023-07-22T03:03:54;99215.81;;;19.42;58.02
8039;BME280;4062;49.844;8.120;2023-07-22T03:05:58;99207.84;;;19.41;58.14
8039;BME280;4062;49.844;8.120;2023-07-22T03:08:03;99213.13;;;19.42;58.34
8039;BME280;4062;49.844;8.120;2023-07-22T03:10:05;99212.25;;;19.42;58.41
8039;BME280;4062;49.844;8.120;2023-07-22T03:12:07;99217.59;;;19.42;58.34
8039;BME280;4062;49.844;8.120;2023-07-22T03:14:09;99208.72;;;19.41;58.14
8039;BME280;4062;49.844;8.120;2023-07-22T03:16:11;99206.88;;;19.42;58.22
8039;BME280;4062;49.844;8.120;2023-07-22T03:18:12;99208.63;;;19.43;58.29
8039;BME280;4062;49.844;8.120;2023-07-22T03:20:14;99203.38;;;19.41;58.13
8039;BME280;4062;49.844;8.120;2023-07-22T03:22:16;99208.72;;;19.41;58.16
8039;BME280;4062;49.844;8.120;2023-07-22T03:24:19;99202.50;;;19.41;58.37
8039;BME280;4062;49.844;8.120;2023-07-22T03:26:21;99212.25;;;19.42;58.21
8039;BME280;4062;49.844;8.120;2023-07-22T03:28:22;99204.22;;;19.42;58.53
8039;BME280;4062;49.844;8.120;2023-07-22T03:30:24;99201.53;;;19.42;58.26
8039;BME280;4062;49.844;8.120;2023-07-22T03:32:25;99195.31;;;19.41;58.29
8039;BME280;4062;49.844;8.120;2023-07-22T03:34:31;99196.16;;;19.42;58.17
8039;BME280;4062;49.844;8.120;2023-07-22T03:36:37;99191.78;;;19.41;58.15
8039;BME280;4062;49.844;8.120;2023-07-22T03:38:42;99204.22;;;19.42;58.16
8039;BME280;4062;49.844;8.120;2023-07-22T03:40:49;99197.13;;;19.41;58.49
8039;BME280;4062;49.844;8.120;2023-07-22T03:42:51;99201.53;;;19.42;58.32
8039;BME280;4062;49.844;8.120;2023-07-22T03:44:56;99194.44;;;19.41;58.23
8039;BME280;4062;49.844;8.120;2023-07-22T03:47:00;99206.03;;;19.41;58.39
8039;BME280;4062;49.844;8.120;2023-07-22T03:49:02;99206.88;;;19.42;58.23
8039;BME280;4062;49.844;8.120;2023-07-22T03:51:04;99203.38;;;19.41;58.53
8039;BME280;4062;49.844;8.120;2023-07-22T03:53:10;99205.16;;;19.41;58.18
8039;BME280;4062;49.844;8.120;2023-07-22T03:55:14;99199.81;;;19.41;58.33
8039;BME280;4062;49.844;8.120;2023-07-22T03:57:16;99203.44;;;19.40;58.27
8039;BME280;4062;49.844;8.120;2023-07-22T03:59:21;99207.84;;;19.41;58.39
8039;BME280;4062;49.844;8.120;2023-07-22T04:01:25;99204.22;;;19.42;58.10
8039;BME280;4062;49.844;8.120;2023-07-22T04:03:29;99210.53;;;19.41;58.48
8039;BME280;4062;49.844;8.120;2023-07-22T04:05:34;99207.84;;;19.41;58.48
8039;BME280;4062;49.844;8.120;2023-07-22T04:07:35;99209.69;;;19.40;58.11
8039;BME280;4062;49.844;8.120;2023-07-22T04:09:37;99210.53;;;19.41;58.28
8039;BME280;4062;49.844;8.120;2023-07-22T04:11:40;99206.88;;;19.42;58.11
8039;BME280;4062;49.844;8.120;2023-07-22T04:13:46;99199.81;;;19.41;58.11
8039;BME280;4062;49.844;8.120;2023-07-22T04:15:54;99206.03;;;19.41;58.33
8039;BME280;4062;49.844;8.120;2023-07-22T04:18:08;99205.16;;;19.41;58.39
8039;BME280;4062;49.844;8.120;2023-07-22T04:20:10;99213.19;;;19.41;58.15
8039;BME280;4062;49.844;8.120;2023-07-22T04:22:15;99211.41;;;19.41;58.11
8039;BME280;4062;49.844;8.120;2023-07-22T04:24:19;99210.53;;;19.41;58.33
8039;BME280;4062;49.844;8.120;2023-07-22T04:26:23;99210.53;;;19.41;57.98
8039;BME280;4062;49.844;8.120;2023-07-22T04:28:26;99207.00;;;19.40;58.23
8039;BME280;4062;49.844;8.120;2023-07-22T04:30:28;99207.00;;;19.40;58.40
8039;BME280;4062;49.844;8.120;2023-07-22T04:32:33;99209.69;;;19.40;58.31
8039;BME280;4062;49.844;8.120;2023-07-22T04:34:38;99211.41;;;19.41;58.16
8039;BME280;4062;49.844;8.120;2023-07-22T04:36:45;99223.91;;;19.41;58.22
8039;BME280;4062;49.844;8.120;2023-07-22T04:38:53;99230.16;;;19.41;58.09
8039;BME280;4062;49.844;8.120;2023-07-22T04:40:55;99223.06;;;19.40;58.48
8039;BME280;4062;49.844;8.120;2023-07-22T04:43:00;99223.06;;;19.40;58.11
8039;BME280;4062;49.844;8.120;2023-07-22T04:45:05;99220.41;;;19.40;58.18
8039;BME280;4062;49.844;8.120;2023-07-22T04:47:16;99230.16;;;19.41;58.23
8039;BME280;4062;49.844;8.120;2023-07-22T04:49:20;99223.91;;;19.41;58.47
8039;BME280;4062;49.844;8.120;2023-07-22T04:51:22;99223.91;;;19.41;58.10
8039;BME280;4062;49.844;8.120;2023-07-22T04:53:23;99228.44;;;19.40;58.10
8039;BME280;4062;49.844;8.120;2023-07-22T04:55:27;99228.44;;;19.40;58.15
8039;BME280;4062;49.844;8.120;2023-07-22T04:57:31;99223.06;;;19.40;58.52
8039;BME280;4062;49.844;8.120;2023-07-22T04:59:32;99227.56;;;19.40;58.12
8039;BME280;4062;49.844;8.120;2023-07-22T05:01:36;99220.41;;;19.40;58.36
8039;BME280;4062;49.844;8.120;2023-07-22T05:03:41;99216.84;;;19.40;58.35
8039;BME280;4062;49.844;8.120;2023-07-22T05:05:45;99223.06;;;19.40;58.54
8039;BME280;4062;49.844;8.120;2023-07-22T05:07:46;99216.84;;;19.40;58.31
8039;BME280;4062;49.844;8.120;2023-07-22T05:09:50;99223.06;;;19.40;58.08
8039;BME280;4062;49.844;8.120;2023-07-22T05:11:55;99222.19;;;19.40;58.21
8039;BME280;4062;49.844;8.120;2023-07-22T05:13:58;99219.50;;;19.40;58.11
8039;BME280;4062;49.844;8.120;2023-07-22T05:16:00;99222.19;;;19.40;58.04
8039;BME280;4062;49.844;8.120;2023-07-22T05:18:02;99221.25;;;19.41;58.12
8039;BME280;4062;49.844;8.120;2023-07-22T05:20:07;99231.97;;;19.41;58.10
8039;BME280;4062;49.844;8.120;2023-07-22T05:22:14;99228.44;;;19.40;58.39
8039;BME280;4062;49.844;8.120;2023-07-22T05:24:16;99227.56;;;19.40;58.23
8039;BME280;4062;49.844;8.120;2023-07-22T05:26:17;99228.44;;;19.40;58.15
8039;BME280;4062;49.844;8.120;2023-07-22T05:28:19;99234.63;;;19.41;58.12
8039;BME280;4062;49.844;8.120;2023-07-22T05:30:22;99231.13;;;19.40;58.10
8039;BME280;4062;49.844;8.120;2023-07-22T05:32:23;99232.91;;;19.40;58.25
8039;BME280;4062;49.844;8.120;2023-07-22T05:34:25;99232.91;;;19.40;58.27
8039;BME280;4062;49.844;8.120;2023-07-22T05:36:29;99230.22;;;19.40;58.10
8039;BME280;4062;49.844;8.120;2023-07-22T05:38:30;99227.56;;;19.40;58.05
8039;BME280;4062;49.844;8.120;2023-07-22T05:40:32;99225.75;;;19.40;58.15
8039;BME280;4062;49.844;8.120;2023-07-22T05:42:36;99231.97;;;19.41;58.06
8039;BME280;4062;49.844;8.120;2023-07-22T05:44:45;99229.28;;;19.41;58.17
8039;BME280;4062;49.844;8.120;2023-07-22T05:46:49;99228.44;;;19.40;58.08
8039;BME280;4062;49.844;8.120;2023-07-22T05:48:53;99238.28;;;19.40;58.30
8039;BME280;4062;49.844;8.120;2023-07-22T05:50:59;99234.75;;;19.39;58.49
8039;BME280;4062;49.844;8.120;2023-07-22T05:53:28;99236.47;;;19.40;58.15
8039;BME280;4062;49.844;8.120;2023-07-22T05:55:47;99236.53;;;19.38;58.18
8039;BME280;4062;49.844;8.120;2023-07-22T05:57:48;99240.94;;;19.40;58.28
8039;BME280;4062;49.844;8.120;2023-07-22T05:59:49;99239.16;;;19.40;58.31
8039;BME280;4062;49.844;8.120;2023-07-22T06:01:51;99241.91;;;19.38;58.32
8039;BME280;4062;49.844;8.120;2023-07-22T06:03:52;99243.63;;;19.40;58.16
8039;BME280;4062;49.844;8.120;2023-07-22T06:05:54;99243.63;;;19.40;58.33
8039;BME280;4062;49.844;8.120;2023-07-22T06:07:55;99243.63;;;19.40;58.22
8039;BME280;4062;49.844;8.120;2023-07-22T06:09:58;99240.94;;;19.40;58.27
8039;BME280;4062;49.844;8.120;2023-07-22T06:11:59;99238.28;;;19.40;58.18
8039;BME280;4062;49.844;8.120;2023-07-22T06:14:00;99244.50;;;19.40;58.18
8039;BME280;4062;49.844;8.120;2023-07-22T06:16:02;99241.81;;;19.40;58.02
8039;BME280;4062;49.844;8.120;2023-07-22T06:18:03;99247.25;;;19.38;58.24
8039;BME280;4062;49.844;8.120;2023-07-22T06:20:09;99244.59;;;19.38;58.45
8039;BME280;4062;49.844;8.120;2023-07-22T06:22:10;99248.13;;;19.39;58.22
8039;BME280;4062;49.844;8.120;2023-07-22T06:24:12;99250.81;;;19.39;58.21
8039;BME280;4062;49.844;8.120;2023-07-22T06:26:13;99252.63;;;19.38;58.25
8039;BME280;4062;49.844;8.120;2023-07-22T06:28:14;99260.66;;;19.38;58.18
8039;BME280;4062;49.844;8.120;2023-07-22T06:30:15;99262.38;;;19.40;58.22
8039;BME280;4062;49.844;8.120;2023-07-22T06:32:17;99253.50;;;19.39;58.31
8039;BME280;4062;49.844;8.120;2023-07-22T06:34:18;99250.81;;;19.39;58.12
8039;BME280;4062;49.844;8.120;2023-07-22T06:36:19;99252.63;;;19.38;58.31
8039;BME280;4062;49.844;8.120;2023-07-22T06:38:21;99262.38;;;19.40;58.22
8039;BME280;4062;49.844;8.120;2023-07-22T06:40:22;99266.88;;;19.39;58.15
8039;BME280;4062;49.844;8.120;2023-07-22T06:42:23;99264.22;;;19.39;58.36
8039;BME280;4062;49.844;8.120;2023-07-22T06:44:24;99266.88;;;19.39;58.33
8039;BME280;4062;49.844;8.120;2023-07-22T06:46:25;99273.09;;;19.40;58.41
8039;BME280;4062;49.844;8.120;2023-07-22T06:48:27;99269.56;;;19.39;57.98
8039;BME280;4062;49.844;8.120;2023-07-22T06:50:28;99270.41;;;19.40;58.22
8039;BME280;4062;49.844;8.120;2023-07-22T06:52:32;99267.75;;;19.40;58.22
8039;BME280;4062;49.844;8.120;2023-07-22T06:54:35;99266.88;;;19.39;58.44
8039;BME280;4062;49.844;8.120;2023-07-22T06:56:36;99269.56;;;19.39;58.30
8039;BME280;4062;49.844;8.120;2023-07-22T06:58:37;99271.38;;;19.38;58.13
8039;BME280;4062;49.844;8.120;2023-07-22T07:00:39;99271.28;;;19.40;58.33
8039;BME280;4062;49.844;8.120;2023-07-22T07:02:40;99263.34;;;19.38;58.05
8039;BME280;4062;49.844;8.120;2023-07-22T07:04:42;99271.38;;;19.38;58.13
8039;BME280;4062;49.844;8.120;2023-07-22T07:06:43;99267.84;;;19.38;58.04
8039;BME280;4062;49.844;8.120;2023-07-22T07:08:44;99271.38;;;19.38;58.34
8039;BME280;4062;49.844;8.120;2023-07-22T07:10:45;99275.78;;;19.40;58.18
8039;BME280;4062;49.844;8.120;2023-07-22T07:12:47;99275.78;;;19.40;58.29
8039;BME280;4062;49.844;8.120;2023-07-22T07:14:53;99274.06;;;19.38;58.45
8039;BME280;4062;49.844;8.120;2023-07-22T07:16:55;99266.00;;;19.38;58.29
8039;BME280;4062;49.844;8.120;2023-07-22T07:18:57;99266.88;;;19.39;58.13
8039;BME280;4062;49.844;8.120;2023-07-22T07:20:59;99267.75;;;19.40;58.40
8039;BME280;4062;49.844;8.120;2023-07-22T07:23:00;99269.47;;;19.41;58.14
8039;BME280;4062;49.844;8.120;2023-07-22T07:25:01;99269.56;;;19.39;58.16
8039;BME280;4062;49.844;8.120;2023-07-22T07:27:03;99266.88;;;19.39;58.02
8039;BME280;4062;49.844;8.120;2023-07-22T07:29:04;99276.66;;;19.40;58.04
8039;BME280;4062;49.844;8.120;2023-07-22T07:31:06;99270.41;;;19.40;58.04
8039;BME280;4062;49.844;8.120;2023-07-22T07:33:07;99273.97;;;19.40;58.17
8039;BME280;4062;49.844;8.120;2023-07-22T07:35:08;99279.34;;;19.40;58.09
8039;BME280;4062;49.844;8.120;2023-07-22T07:37:10;99280.19;;;19.41;58.28
8039;BME280;4062;49.844;8.120;2023-07-22T07:39:11;99274.81;;;19.41;58.09
8039;BME280;4062;49.844;8.120;2023-07-22T07:41:13;99273.03;;;19.41;58.03
8039;BME280;4062;49.844;8.120;2023-07-22T07:43:14;99273.03;;;19.41;58.22
8039;BME280;4062;49.844;8.120;2023-07-22T07:45:16;99272.16;;;19.41;58.10
8039;BME280;4062;49.844;8.120;2023-07-22T07:47:17;99273.03;;;19.41;57.98
8039;BME280;4062;49.844;8.120;2023-07-22T07:49:19;99269.47;;;19.41;58.17
8039;BME280;4062;49.844;8.120;2023-07-22T07:51:22;99277.50;;;19.41;58.10
8039;BME280;4062;49.844;8.120;2023-07-22T07:53:23;99273.03;;;19.41;58.23
8039;BME280;4062;49.844;8.120;2023-07-22T07:55:25;99271.19;;;19.42;58.32
8039;BME280;4062;49.844;8.120;2023-07-22T07:57:26;99276.53;;;19.42;58.27
8039;BME280;4062;49.844;8.120;2023-07-22T07:59:27;99272.91;;;19.43;58.12
8039;BME280;4062;49.844;8.120;2023-07-22T08:01:29;99276.44;;;19.43;58.01
8039;BME280;4062;49.844;8.120;2023-07-22T08:03:30;99272.91;;;19.43;57.99
8039;BME280;4062;49.844;8.120;2023-07-22T08:05:32;99270.13;;;19.44;58.28
8039;BME280;4062;49.844;8.120;2023-07-22T08:07:33;99273.69;;;19.45;58.21
8039;BME280;4062;49.844;8.120;2023-07-22T08:09:34;99268.31;;;19.45;58.00
8039;BME280;4062;49.844;8.120;2023-07-22T08:11:36;99263.94;;;19.44;58.07
8039;BME280;4062;49.844;8.120;2023-07-22T08:13:38;99271.84;;;19.45;58.21
8039;BME280;4062;49.844;8.120;2023-07-22T08:15:40;99269.09;;;19.47;57.99
8039;BME280;4062;49.844;8.120;2023-07-22T08:17:42;99270.78;;;19.48;58.26
8039;BME280;4062;49.844;8.120;2023-07-22T08:19:44;99276.25;;;19.46;58.04
8039;BME280;4062;49.844;8.120;2023-07-22T08:21:48;99275.41;;;19.46;58.01
8039;BME280;4062;49.844;8.120;2023-07-22T08:23:49;99273.69;;;19.45;58.00
8039;BME280;4062;49.844;8.120;2023-07-22T08:25:50;99269.16;;;19.45;58.31
8039;BME280;4062;49.844;8.120;2023-07-22T08:27:52;99271.84;;;19.45;58.14
8039;BME280;4062;49.844;8.120;2023-07-22T08:29:53;99263.81;;;19.45;58.15
8039;BME280;4062;49.844;8.120;2023-07-22T08:31:54;99269.16;;;19.45;58.11
8039;BME280;4062;49.844;8.120;2023-07-22T08:33:56;99273.69;;;19.45;58.12
8039;BME280;4062;49.844;8.120;2023-07-22T08:35:57;99279.03;;;19.45;57.96
8039;BME280;4062;49.844;8.120;2023-07-22T08:37:59;99274.63;;;19.44;57.93
8039;BME280;4062;49.844;8.120;2023-07-22T08:40:00;99279.03;;;19.45;58.21
8039;BME280;4062;49.844;8.120;2023-07-22T08:42:04;99273.69;;;19.45;58.25
8039;BME280;4062;49.844;8.120;2023-07-22T08:44:08;99274.63;;;19.44;58.22
8039;BME280;4062;49.844;8.120;2023-07-22T08:46:12;99276.38;;;19.45;58.20
8039;BME280;4062;49.844;8.120;2023-07-22T08:48:15;99273.75;;;19.43;58.28
8039;BME280;4062;49.844;8.120;2023-07-22T08:50:20;99271.97;;;19.44;58.19
8039;BME280;4062;49.844;8.120;2023-07-22T08:52:25;99269.28;;;19.44;58.33
8039;BME280;4062;49.844;8.120;2023-07-22T08:54:30;99266.59;;;19.44;58.14
8039;BME280;4062;49.844;8.120;2023-07-22T08:56:33;99271.00;;;19.45;58.29
8039;BME280;4062;49.844;8.120;2023-07-22T08:58:36;99271.00;;;19.45;58.25
8039;BME280;4062;49.844;8.120;2023-07-22T09:00:39;99266.59;;;19.44;58.31
8039;BME280;4062;49.844;8.120;2023-07-22T09:02:42;99270.13;;;19.44;58.00
8039;BME280;4062;49.844;8.120;2023-07-22T09:04:43;99268.31;;;19.45;58.18
8039;BME280;4062;49.844;8.120;2023-07-22T09:06:45;99262.09;;;19.44;57.86
8039;BME280;4062;49.844;8.120;2023-07-22T09:08:47;99260.28;;;19.45;58.30
8039;BME280;4062;49.844;8.120;2023-07-22T09:10:49;99264.69;;;19.46;58.12
8039;BME280;4062;49.844;8.120;2023-07-22T09:12:51;99260.28;;;19.45;58.20
8039;BME280;4062;49.844;8.120;2023-07-22T09:14:53;99257.59;;;19.45;58.24
8039;BME280;4062;49.844;8.120;2023-07-22T09:16:54;99257.59;;;19.45;58.33
8039;BME280;4062;49.844;8.120;2023-07-22T09:18:57;99252.25;;;19.45;58.06
8039;BME280;4062;49.844;8.120;2023-07-22T09:20:59;99253.09;;;19.45;57.96
8039;BME280;4062;49.844;8.120;2023-07-22T09:23:01;99263.81;;;19.45;58.05
8039;BME280;4062;49.844;8.120;2023-07-22T09:27:16;99255.78;;;19.45;57.96
8039;BME280;4062;49.844;8.120;2023-07-22T09:29:38;99256.72;;;19.44;58.02
8039;BME280;4062;49.844;8.120;2023-07-22T09:31:54;99255.88;;;19.44;58.28
8039;BME280;4062;49.844;8.120;2023-07-22T09:34:09;99252.25;;;19.45;57.98
8039;BME280;4062;49.844;8.120;2023-07-22T09:36:11;99251.38;;;19.44;58.17
8039;BME280;4062;49.844;8.120;2023-07-22T09:38:13;99249.56;;;19.45;57.98
8039;BME280;4062;49.844;8.120;2023-07-22T09:40:21;99244.22;;;19.45;58.37
8039;BME280;4062;49.844;8.120;2023-07-22T09:42:26;99240.59;;;19.46;58.21
8039;BME280;4062;49.844;8.120;2023-07-22T09:44:31;99233.38;;;19.46;58.00
8039;BME280;4062;49.844;8.120;2023-07-22T09:46:35;99239.69;;;19.45;58.24
8039;BME280;4062;49.844;8.120;2023-07-22T09:48:43;99243.25;;;19.46;57.96
8039;BME280;4062;49.844;8.120;2023-07-22T09:50:46;99232.53;;;19.46;57.89
8039;BME280;4062;49.844;8.120;2023-07-22T09:52:55;99224.50;;;19.46;58.27
8039;BME280;4062;49.844;8.120;2023-07-22T09:54:59;99216.47;;;19.46;58.14
8039;BME280;4062;49.844;8.120;2023-07-22T09:57:00;99220.94;;;19.45;57.91
8039;BME280;4062;49.844;8.120;2023-07-22T09:59:05;99220.94;;;19.45;58.30
8039;BME280;4062;49.844;8.120;2023-07-22T10:01:11;99223.63;;;19.45;58.24
8039;BME280;4062;49.844;8.120;2023-07-22T10:03:16;99229.94;;;19.44;57.95
8039;BME280;4062;49.844;8.120;2023-07-22T10:05:20;99221.91;;;19.44;58.24
8039;BME280;4062;49.844;8.120;2023-07-22T10:07:21;99225.47;;;19.45;58.30
8039;BME280;4062;49.844;8.120;2023-07-22T10:09:25;99220.94;;;19.45;58.01
8039;BME280;4062;49.844;8.120;2023-07-22T10:11:29;99228.13;;;19.45;58.24
8039;BME280;4062;49.844;8.120;2023-07-22T10:13:32;99220.88;;;19.47;58.18
8039;BME280;4062;49.844;8.120;2023-07-22T10:15:34;99214.63;;;19.46;58.12
8039;BME280;4062;49.844;8.120;2023-07-22T10:17:36;99212.91;;;19.45;58.05
8039;BME280;4062;49.844;8.120;2023-07-22T10:19:37;99211.09;;;19.46;58.04
8039;BME280;4062;49.844;8.120;2023-07-22T10:21:39;99198.66;;;19.45;58.18
8039;BME280;4062;49.844;8.120;2023-07-22T10:23:41;99205.75;;;19.46;58.18
8039;BME280;4062;49.844;8.120;2023-07-22T10:25:43;99209.38;;;19.45;57.95
8039;BME280;4062;49.844;8.120;2023-07-22T10:27:49;99211.19;;;19.44;58.24
8039;BME280;4062;49.844;8.120;2023-07-22T10:29:50;99226.31;;;19.45;58.06
8039;BME280;4062;49.844;8.120;2023-07-22T10:31:53;99217.41;;;19.45;58.11
8039;BME280;4062;49.844;8.120;2023-07-22T10:33:56;99213.88;;;19.44;57.96
8039;BME280;4062;49.844;8.120;2023-07-22T10:36:08;99214.75;;;19.45;57.99
8039;BME280;4062;49.844;8.120;2023-07-22T10:38:16;99211.19;;;19.44;58.09
8039;BME280;4062;49.844;8.120;2023-07-22T10:42:25;99210.22;;;19.45;57.98
8039;BME280;4062;49.844;8.120;2023-07-22T10:44:27;99204.88;;;19.45;58.19
8039;BME280;4062;49.844;8.120;2023-07-22T10:46:36;99200.38;;;19.46;58.15
8039;BME280;4062;49.844;8.120;2023-07-22T10:48:41;99203.06;;;19.46;58.31
8039;BME280;4062;49.844;8.120;2023-07-22T10:50:44;99202.19;;;19.45;58.18
8039;BME280;4062;49.844;8.120;2023-07-22T10:52:47;99199.50;;;19.45;58.06
8039;BME280;4062;49.844;8.120;2023-07-22T10:54:51;99200.38;;;19.46;58.19
8039;BME280;4062;49.844;8.120;2023-07-22T10:56:57;99189.69;;;19.46;58.01
8039;BME280;4062;49.844;8.120;2023-07-22T10:58:59;99199.50;;;19.45;58.21
8039;BME280;4062;49.844;8.120;2023-07-22T11:03:28;99196.75;;;19.47;57.93
8039;BME280;4062;49.844;8.120;2023-07-22T11:05:51;99191.47;;;19.45;57.88
8039;BME280;4062;49.844;8.120;2023-07-22T11:08:03;99188.78;;;19.45;57.98
8039;BME280;4062;49.844;8.120;2023-07-22T11:10:18;99186.13;;;19.45;58.19
8039;BME280;4062;49.844;8.120;2023-07-22T11:12:19;99187.00;;;19.46;58.17
8039;BME280;4062;49.844;8.120;2023-07-22T11:14:25;99185.16;;;19.46;58.17
8039;BME280;4062;49.844;8.120;2023-07-22T11:16:29;99171.88;;;19.45;58.21